Time;durP1;ratioP1;P1;durP2;ratioP2;P2;SDS_P1;SDS_P2;PMS_P1;PMS_P2;Temp;Humidity;BMP_temperature;BMP_pressure;BME280_temperature;BME280_humidity;BME280_pressure;Samples;Min_cycle;Max_cycle;Signal;HPM_P1;HPM_P2
2022/10/12 04:00:16;;;;;;;2.95;1.38;;;10.80;99.90;;;;;;6190834;22;20561;31
2022/10/12 04:02:43;;;;;;;0.98;0.98;;;10.80;99.90;;;;;;6214096;23;20182;-70
2022/10/12 04:05:10;;;;;;;0.77;0.77;;;10.90;99.90;;;;;;6213914;23;20192;-70
2022/10/12 04:07:37;;;;;;;1.42;1.38;;;10.80;99.90;;;;;;6214177;23;20186;-70
2022/10/12 04:10:04;;;;;;;1.35;1.35;;;10.80;99.90;;;;;;6214211;23;20196;-70
2022/10/12 04:12:31;;;;;;;2.00;1.42;;;10.80;99.90;;;;;;6213429;23;20202;-70
2022/10/12 04:14:58;;;;;;;1.00;1.00;;;10.80;99.90;;;;;;6215234;23;20192;-70
2022/10/12 04:17:26;;;;;;;1.63;1.20;;;10.80;99.90;;;;;;6214706;23;20192;-71
2022/10/12 04:19:52;;;;;;;3.90;0.98;;;10.80;99.90;;;;;;6224400;23;20181;-70
2022/10/12 04:22:20;;;;;;;2.53;1.20;;;10.80;99.90;;;;;;6213143;23;20205;-70
2022/10/12 04:24:47;;;;;;;1.95;0.77;;;10.80;99.90;;;;;;6214217;23;20232;-70
2022/10/12 04:27:13;;;;;;;0.68;0.68;;;10.80;99.90;;;;;;6214506;23;20197;-70
2022/10/12 04:29:40;;;;;;;3.08;1.33;;;10.80;99.90;;;;;;6214254;23;20652;-70
2022/10/12 04:32:07;;;;;;;1.98;0.80;;;10.80;99.90;;;;;;6214382;23;20532;-70
2022/10/12 04:34:35;;;;;;;1.50;1.50;;;10.80;99.90;;;;;;6213845;23;20238;-70
2022/10/12 04:37:02;;;;;;;1.85;1.40;;;10.80;99.90;;;;;;6213566;23;20233;-70
2022/10/12 04:39:29;;;;;;;2.80;1.00;;;10.80;99.90;;;;;;6213027;23;20203;-70
2022/10/12 04:41:56;;;;;;;3.05;1.25;;;10.80;99.90;;;;;;6213589;23;20655;-70
2022/10/12 04:44:23;;;;;;;1.27;1.02;;;10.80;99.90;;;;;;6213646;23;20557;-70
2022/10/12 04:46:50;;;;;;;1.27;1.27;;;10.80;99.90;;;;;;6213885;23;20242;-70
2022/10/12 04:49:16;;;;;;;3.13;1.23;;;10.70;99.90;;;;;;6214004;23;20196;-70
2022/10/12 04:51:44;;;;;;;0.95;0.95;;;10.70;99.90;;;;;;6213010;23;20208;-70
2022/10/12 04:54:11;;;;;;;0.95;0.95;;;10.70;99.90;;;;;;6212468;23;20188;-70
2022/10/12 04:56:38;;;;;;;7.30;1.98;;;10.70;99.90;;;;;;6213714;23;20204;-70
2022/10/12 04:59:05;;;;;;;1.23;1.23;;;10.70;99.90;;;;;;6213786;23;20181;-70
2022/10/12 05:01:31;;;;;;;5.18;1.08;;;10.70;99.90;;;;;;6213419;23;20214;-70
2022/10/12 05:03:59;;;;;;;5.10;2.10;;;10.70;99.90;;;;;;6213109;23;20604;-70
2022/10/12 05:06:25;;;;;;;0.73;0.73;;;10.70;99.90;;;;;;6213066;23;20238;-70
2022/10/12 05:08:54;;;;;;;5.80;1.95;;;10.60;99.90;;;;;;6213282;23;20648;-70
2022/10/12 05:11:20;;;;;;;1.85;0.85;;;10.60;99.90;;;;;;6213599;23;20199;-70
2022/10/12 05:13:47;;;;;;;1.27;1.17;;;10.50;99.90;;;;;;6214104;23;20189;-70
2022/10/12 05:16:14;;;;;;;1.23;1.20;;;10.50;99.90;;;;;;6213842;23;20616;-70
2022/10/12 05:18:41;;;;;;;2.20;1.48;;;10.40;99.90;;;;;;6213872;23;20183;-70
2022/10/12 05:21:07;;;;;;;2.28;1.20;;;10.30;99.90;;;;;;6213214;23;20596;-70
2022/10/12 05:23:34;;;;;;;2.10;1.17;;;10.30;99.90;;;;;;6212419;23;20194;-70
2022/10/12 05:26:02;;;;;;;1.20;1.20;;;10.20;99.90;;;;;;6213350;23;20185;-70
2022/10/12 05:28:29;;;;;;;1.50;1.27;;;10.10;99.90;;;;;;6213604;23;20186;-70
2022/10/12 05:30:55;;;;;;;3.47;1.25;;;10.10;99.90;;;;;;6213218;23;20204;-67
2022/10/12 05:33:22;;;;;;;5.28;1.60;;;10.10;99.90;;;;;;6213343;23;20179;-70
2022/10/12 05:35:49;;;;;;;1.63;1.50;;;10.00;99.90;;;;;;6212993;23;20189;-70
2022/10/12 05:38:16;;;;;;;1.30;1.20;;;9.90;99.90;;;;;;6213262;23;20196;-70
2022/10/12 05:40:43;;;;;;;4.93;2.55;;;9.90;99.90;;;;;;6213676;23;20222;-70
2022/10/12 05:43:11;;;;;;;2.22;1.52;;;9.90;99.90;;;;;;6213135;23;20185;-70
2022/10/12 05:45:38;;;;;;;23.25;14.10;;;9.80;99.90;;;;;;6213854;23;20181;-70
2022/10/12 05:48:05;;;;;;;16.38;9.75;;;9.80;99.90;;;;;;6213870;23;20189;-70
2022/10/12 05:50:31;;;;;;;10.07;7.28;;;9.70;99.90;;;;;;6213201;23;20295;-70
2022/10/12 05:52:58;;;;;;;23.98;12.18;;;9.70;99.90;;;;;;6213141;23;20207;-70
2022/10/12 05:55:25;;;;;;;28.67;14.25;;;9.70;99.90;;;;;;6213094;23;20191;-74
2022/10/12 05:57:52;;;;;;;19.45;8.95;;;9.60;99.90;;;;;;6213760;23;20206;-70
2022/10/12 06:00:20;;;;;;;9.77;3.70;;;9.60;99.90;;;;;;6213320;23;20185;-70
2022/10/12 06:02:47;;;;;;;7.35;3.45;;;9.60;99.90;;;;;;6213303;23;20218;-70
2022/10/12 06:05:14;;;;;;;12.23;3.22;;;9.60;99.90;;;;;;6212675;23;20184;-70
2022/10/12 06:07:40;;;;;;;4.07;3.40;;;9.50;99.90;;;;;;6212846;23;20199;-70
2022/10/12 06:10:08;;;;;;;4.90;4.38;;;9.50;99.90;;;;;;6213373;23;20521;-70
2022/10/12 06:12:35;;;;;;;4.00;3.78;;;9.50;99.90;;;;;;6212908;23;20211;-70
2022/10/12 06:15:01;;;;;;;2.88;2.25;;;9.50;99.90;;;;;;6213715;23;20184;-70
2022/10/12 06:17:30;;;;;;;3.47;2.90;;;9.40;99.90;;;;;;6213054;23;20188;-70
2022/10/12 06:19:57;;;;;;;2.15;1.92;;;9.40;99.90;;;;;;6213415;23;20523;-70
2022/10/12 06:22:23;;;;;;;2.80;2.67;;;9.40;99.90;;;;;;6212007;23;20200;-70
2022/10/12 06:24:50;;;;;;;8.52;4.20;;;9.40;99.90;;;;;;6212757;23;20195;-69
2022/10/12 06:27:18;;;;;;;9.07;5.53;;;9.40;99.90;;;;;;6213285;23;20435;-69
2022/10/12 06:29:45;;;;;;;7.43;5.70;;;9.40;99.90;;;;;;6213602;23;20180;-69
2022/10/12 06:32:12;;;;;;;8.43;5.32;;;9.40;99.90;;;;;;6213089;23;20204;-70
2022/10/12 06:34:40;;;;;;;10.13;2.63;;;9.40;99.90;;;;;;6213113;23;20195;-69
2022/10/12 06:37:06;;;;;;;10.07;5.85;;;9.40;99.90;;;;;;6212764;23;20182;-69
2022/10/12 06:39:33;;;;;;;11.90;3.90;;;9.40;99.90;;;;;;6212715;23;20181;-70
2022/10/12 06:42:00;;;;;;;3.63;3.13;;;9.40;99.90;;;;;;6222844;23;20204;-69
2022/10/12 06:44:26;;;;;;;2.03;1.92;;;9.50;99.90;;;;;;6212491;23;20238;-69
2022/10/12 06:46:53;;;;;;;3.05;2.78;;;9.50;99.90;;;;;;6212977;23;20184;-69
2022/10/12 06:49:20;;;;;;;19.13;3.17;;;9.50;99.90;;;;;;6212920;23;20188;-69
2022/10/12 06:51:48;;;;;;;6.05;2.58;;;9.50;99.90;;;;;;6212157;23;20212;-69
2022/10/12 06:54:15;;;;;;;1.60;1.50;;;9.50;99.90;;;;;;6212336;23;20181;-69
2022/10/12 06:56:42;;;;;;;2.95;2.72;;;9.60;99.90;;;;;;6213099;23;20192;-69
2022/10/12 06:59:11;;;;;;;4.72;3.90;;;9.60;99.90;;;;;;6212472;23;20506;-69
2022/10/12 07:01:38;;;;;;;2.78;2.42;;;9.60;99.90;;;;;;6212590;23;20219;-69
2022/10/12 07:04:05;;;;;;;2.00;1.90;;;9.60;99.90;;;;;;6212486;23;20666;-69
2022/10/12 07:06:33;;;;;;;3.88;2.42;;;9.60;99.90;;;;;;6212453;23;20185;-69
2022/10/12 07:09:01;;;;;;;5.97;1.73;;;9.70;99.90;;;;;;6212120;23;20187;-69
2022/10/12 07:11:27;;;;;;;2.13;2.13;;;9.70;99.90;;;;;;6212618;23;20215;-69
2022/10/12 07:13:54;;;;;;;2.33;2.20;;;9.80;99.90;;;;;;6212157;23;20687;-69
2022/10/12 07:16:21;;;;;;;12.55;3.22;;;9.80;99.90;;;;;;6212945;23;20203;-69
2022/10/12 07:18:48;;;;;;;4.03;3.72;;;9.80;99.90;;;;;;6212693;23;20180;-69
2022/10/12 07:21:14;;;;;;;4.70;3.35;;;9.90;99.90;;;;;;6212090;23;20703;-70
2022/10/12 07:23:41;;;;;;;3.38;3.00;;;9.90;99.90;;;;;;6212055;23;20259;-70
2022/10/12 07:26:09;;;;;;;8.68;3.75;;;9.90;99.90;;;;;;6212940;23;20191;-69
2022/10/12 07:28:37;;;;;;;1.20;1.10;;;10.00;99.90;;;;;;6212834;23;20186;-70
2022/10/12 07:31:05;;;;;;;7.43;2.10;;;10.00;99.90;;;;;;6212923;23;20205;-70
2022/10/12 07:33:33;;;;;;;2.10;2.05;;;10.00;99.90;;;;;;6212488;23;20201;-70
2022/10/12 07:36:00;;;;;;;1.25;1.15;;;10.10;99.90;;;;;;6212543;23;20197;-69
2022/10/12 07:38:27;;;;;;;21.58;3.63;;;10.10;99.90;;;;;;6212464;23;20207;-69
2022/10/12 07:40:54;;;;;;;9.18;2.47;;;10.10;99.90;;;;;;6212348;23;20640;-69
2022/10/12 07:43:22;;;;;;;2.70;2.58;;;10.20;99.90;;;;;;6212535;23;20184;-69
2022/10/12 07:45:49;;;;;;;5.07;2.30;;;10.20;99.90;;;;;;6212873;23;20517;-69
2022/10/12 07:48:15;;;;;;;5.70;1.30;;;10.30;99.90;;;;;;6212820;23;20188;-69
2022/10/12 07:50:42;;;;;;;4.97;2.05;;;10.40;99.90;;;;;;6211881;23;20201;-69
2022/10/12 07:53:09;;;;;;;6.97;1.75;;;10.40;99.90;;;;;;6211459;23;20197;-69
2022/10/12 07:55:36;;;;;;;5.30;3.10;;;10.50;99.90;;;;;;6212835;23;20215;-69
2022/10/12 07:58:03;;;;;;;14.38;2.03;;;10.50;99.90;;;;;;6212486;23;20666;-69
2022/10/12 08:00:31;;;;;;;3.15;1.58;;;10.60;99.90;;;;;;6212715;23;20198;-69
2022/10/12 08:02:58;;;;;;;1.02;1.02;;;10.60;99.90;;;;;;6212540;23;20163;-69
2022/10/12 08:05:26;;;;;;;2.45;1.58;;;10.70;99.90;;;;;;6212108;23;20181;-70
2022/10/12 08:07:53;;;;;;;5.78;1.33;;;10.80;99.90;;;;;;6221797;23;20200;-69
2022/10/12 08:10:20;;;;;;;3.60;1.15;;;10.80;99.90;;;;;;6212632;23;20219;-70
2022/10/12 08:12:47;;;;;;;4.40;1.23;;;10.80;99.90;;;;;;6212211;23;20205;-70
2022/10/12 08:15:14;;;;;;;2.05;1.95;;;10.90;99.90;;;;;;6213100;23;20211;-70
2022/10/12 08:17:43;;;;;;;1.25;1.25;;;11.00;99.90;;;;;;6212349;23;20192;-70
2022/10/12 08:20:10;;;;;;;2.00;1.90;;;11.20;99.90;;;;;;6213523;23;20195;-70
2022/10/12 08:22:37;;;;;;;3.70;1.20;;;11.30;99.90;;;;;;6213347;23;20185;-70
2022/10/12 08:25:04;;;;;;;4.88;1.42;;;11.40;99.90;;;;;;6214661;23;20208;-70
2022/10/12 08:27:31;;;;;;;0.88;0.73;;;11.50;99.90;;;;;;6214291;23;20549;-70
2022/10/12 08:29:58;;;;;;;4.50;0.90;;;11.60;99.90;;;;;;6224613;23;20178;-70
2022/10/12 08:32:24;;;;;;;5.50;1.55;;;11.50;99.90;;;;;;6215019;23;20680;-70
2022/10/12 08:34:53;;;;;;;3.03;1.10;;;11.50;99.90;;;;;;6213989;23;20191;-70
2022/10/12 08:37:19;;;;;;;5.15;0.85;;;11.60;99.90;;;;;;6213739;23;20181;-70
2022/10/12 08:39:46;;;;;;;0.90;0.90;;;11.60;99.90;;;;;;6214838;23;20186;-69
2022/10/12 08:42:28;;;;;;;2.15;1.42;;;11.80;99.90;;;;;;6214424;23;20594;-69
2022/10/12 08:45:13;;;;;;;3.20;1.48;;;11.90;99.90;;;;;;6214041;23;20495;-69
2022/10/12 08:47:43;;;;;;;24.92;8.80;;;12.00;99.90;;;;;;6214362;23;20178;-70
2022/10/12 08:50:17;;;;;;;5.82;5.30;;;12.10;99.90;;;;;;6223531;23;20160;-70
2022/10/12 08:52:52;;;;;;;1.23;1.10;;;12.10;99.90;;;;;;6213148;23;20191;-70
2022/10/12 08:55:32;;;;;;;1.00;1.00;;;12.30;99.90;;;;;;6214190;23;20172;-70
2022/10/12 08:58:00;;;;;;;5.63;2.20;;;12.50;99.90;;;;;;6213856;23;20168;-70
2022/10/12 09:00:28;;;;;;;2.55;0.82;;;12.60;99.90;;;;;;6214164;23;20506;-70
2022/10/12 09:03:08;;;;;;;2.50;0.93;;;12.70;99.90;;;;;;6213871;23;20172;-70
2022/10/12 09:05:41;;;;;;;2.90;1.02;;;12.80;99.90;;;;;;6223515;23;20399;-70
2022/10/12 09:08:14;;;;;;;5.00;0.73;;;12.80;99.90;;;;;;6213781;23;20188;-70
2022/10/12 09:10:46;;;;;;;2.17;0.68;;;12.90;99.90;;;;;;6214058;23;20446;-70
2022/10/12 09:13:30;;;;;;;4.03;0.93;;;13.00;99.90;;;;;;6214001;23;20217;-70
2022/10/12 09:16:01;;;;;;;0.97;0.97;;;13.10;99.90;;;;;;6213932;23;20733;-70
2022/10/12 09:18:36;;;;;;;1.00;0.93;;;13.10;99.90;;;;;;6214459;23;20415;-70
2022/10/12 09:21:06;;;;;;;1.50;0.80;;;13.20;99.90;;;;;;6213006;23;20442;-70
2022/10/12 09:23:38;;;;;;;2.10;0.57;;;13.30;99.90;;;;;;6213044;23;20437;-70
2022/10/12 09:26:14;;;;;;;2.40;0.70;;;13.40;99.90;;;;;;6214020;23;20407;-70
2022/10/12 09:28:44;;;;;;;0.40;0.40;;;13.30;99.90;;;;;;6213895;23;20760;-70
2022/10/12 09:31:26;;;;;;;4.33;1.27;;;13.40;99.90;;;;;;6214760;23;20449;-70
2022/10/12 09:33:56;;;;;;;1.07;0.97;;;13.50;99.90;;;;;;6214168;23;20458;-70
2022/10/12 09:36:30;;;;;;;0.73;0.73;;;13.50;99.90;;;;;;6214162;23;20425;-71
2022/10/12 09:38:59;;;;;;;0.63;0.63;;;13.60;99.90;;;;;;6224059;23;20400;-71
2022/10/12 09:41:31;;;;;;;0.60;0.60;;;13.60;99.90;;;;;;6214427;23;20463;-70
2022/10/12 09:44:01;;;;;;;1.03;0.93;;;13.60;99.90;;;;;;6225175;23;20462;-71
2022/10/12 09:46:35;;;;;;;4.53;1.63;;;13.60;99.90;;;;;;6214910;23;20424;-71
2022/10/12 09:49:01;;;;;;;0.60;0.60;;;13.60;99.90;;;;;;6217371;23;20871;-71
2022/10/12 09:51:30;;;;;;;3.67;3.37;;;13.70;99.90;;;;;;6226601;23;20439;-70
2022/10/12 09:54:02;;;;;;;1.60;1.07;;;13.80;99.90;;;;;;6223104;23;20822;-71
2022/10/12 09:56:35;;;;;;;3.90;2.50;;;13.80;99.90;;;;;;6222403;23;20406;-70
2022/10/12 09:59:04;;;;;;;14.70;8.70;;;13.80;99.90;;;;;;6220638;23;20415;-70
2022/10/12 10:01:33;;;;;;;6.17;1.80;;;13.80;99.90;;;;;;6215439;23;20451;-70
2022/10/12 10:04:13;;;;;;;1.33;0.83;;;13.90;99.90;;;;;;6213328;23;20423;-70
2022/10/12 10:06:43;;;;;;;2.50;0.67;;;14.00;99.90;;;;;;6212531;23;20422;-70
2022/10/12 10:09:28;;;;;;;0.93;0.37;;;14.00;99.90;;;;;;6213109;23;20502;-70
2022/10/12 10:11:55;;;;;;;2.10;0.40;;;14.20;99.90;;;;;;6213645;23;20540;-70
2022/10/12 10:14:22;;;;;;;0.60;0.60;;;14.30;99.90;;;;;;6220896;22;20469;-68
2022/10/12 10:16:51;;;;;;;0.40;0.40;;;14.40;99.90;;;;;;6242898;23;20901;-67
2022/10/12 10:19:20;;;;;;;1.23;0.87;;;14.40;99.90;;;;;;6243189;23;20430;-70
2022/10/12 10:21:48;;;;;;;3.13;0.97;;;14.50;99.90;;;;;;6242597;23;20419;-70
2022/10/12 10:24:24;;;;;;;2.10;1.30;;;14.50;99.90;;;;;;6242821;22;20491;-70
2022/10/12 10:26:54;;;;;;;1.90;0.87;;;14.60;99.90;;;;;;6243706;23;20411;-69
2022/10/12 10:29:32;;;;;;;0.90;0.90;;;14.60;99.90;;;;;;6243408;23;20502;-69
2022/10/12 10:32:23;;;;;;;1.90;1.37;;;14.60;99.90;;;;;;6243606;23;20415;-69
2022/10/12 10:35:01;;;;;;;1.37;0.80;;;14.60;99.90;;;;;;6243502;22;20442;-70
2022/10/12 10:37:31;;;;;;;1.60;0.90;;;14.70;99.90;;;;;;6242742;23;20435;-70
2022/10/12 10:39:59;;;;;;;2.20;0.60;;;14.70;99.90;;;;;;6242975;23;20422;-71
2022/10/12 10:42:28;;;;;;;12.27;7.00;;;14.70;99.90;;;;;;6242864;23;20427;-69
2022/10/12 10:45:01;;;;;;;1.50;1.40;;;14.80;99.90;;;;;;6243175;22;20448;-70
2022/10/12 10:47:29;;;;;;;2.23;1.17;;;14.70;99.90;;;;;;6242998;23;20482;-68
2022/10/12 10:49:58;;;;;;;0.27;0.23;;;14.80;99.90;;;;;;6243280;23;20428;-68
2022/10/12 10:52:27;;;;;;;2.40;1.03;;;14.80;99.90;;;;;;6242309;23;20748;-69
2022/10/12 10:55:18;;;;;;;1.07;1.07;;;14.90;99.90;;;;;;6242849;22;20443;-70
2022/10/12 10:57:50;;;;;;;5.63;3.77;;;15.00;99.90;;;;;;6243856;23;20744;-70
2022/10/12 11:00:20;;;;;;;3.20;2.90;;;15.00;99.90;;;;;;6243020;23;20405;-70
2022/10/12 11:02:50;;;;;;;1.80;0.60;;;15.00;99.90;;;;;;6242819;23;20792;-69
2022/10/12 11:05:22;;;;;;;6.10;1.57;;;15.10;99.90;;;;;;6242753;22;20457;-71
2022/10/12 11:07:52;;;;;;;10.30;7.13;;;15.10;99.90;;;;;;6242774;23;20502;-70
2022/10/12 11:10:27;;;;;;;3.50;0.77;;;15.00;99.90;;;;;;6243167;23;20427;-69
2022/10/12 11:13:00;;;;;;;3.40;0.77;;;15.00;99.90;;;;;;6242394;23;20438;-69
2022/10/12 11:15:34;;;;;;;1.73;1.63;;;15.10;99.90;;;;;;6242251;22;20448;-70
2022/10/12 11:18:07;;;;;;;5.90;2.40;;;15.10;99.90;;;;;;6243635;23;20736;-70
2022/10/12 11:20:51;;;;;;;2.27;2.10;;;15.10;99.90;;;;;;6242616;23;20418;-70
2022/10/12 11:23:33;;;;;;;4.80;4.30;;;15.10;99.90;;;;;;6242222;23;20403;-70
2022/10/12 11:26:15;;;;;;;0.33;0.33;;;15.00;99.90;;;;;;6243232;22;20442;-70
2022/10/12 11:28:42;;;;;;;1.90;1.13;;;15.10;99.90;;;;;;6242695;23;20412;-69
2022/10/12 11:31:18;;;;;;;0.80;0.80;;;15.10;99.90;;;;;;6242592;23;20427;-70
2022/10/12 11:33:47;;;;;;;2.40;1.17;;;15.10;99.90;;;;;;6243134;22;20428;-69
2022/10/12 11:36:18;;;;;;;1.80;0.70;;;15.20;99.90;;;;;;6242623;23;20422;-71
2022/10/12 11:38:48;;;;;;;0.70;0.60;;;15.30;99.90;;;;;;6242502;23;20408;-69
2022/10/12 11:41:20;;;;;;;0.50;0.43;;;15.30;99.90;;;;;;6243100;23;20424;-69
2022/10/12 11:43:52;;;;;;;1.90;1.00;;;15.40;99.90;;;;;;6242605;22;20408;-69
2022/10/12 11:46:28;;;;;;;1.17;0.60;;;15.40;99.90;;;;;;6242969;23;20420;-68
2022/10/12 11:48:59;;;;;;;0.40;0.40;;;15.40;99.90;;;;;;6243051;23;20743;-68
2022/10/12 11:51:26;;;;;;;1.80;0.80;;;15.50;99.90;;;;;;6242228;23;20408;-69
2022/10/12 11:54:01;;;;;;;2.27;1.07;;;15.60;99.90;;;;;;6242201;22;20770;-69
2022/10/12 11:56:34;;;;;;;2.63;1.00;;;15.50;99.90;;;;;;6244458;23;20408;-69
2022/10/12 11:59:05;;;;;;;0.47;0.47;;;15.40;99.90;;;;;;6244455;23;21065;-68
2022/10/12 12:01:46;;;;;;;1.80;0.40;;;15.40;99.90;;;;;;6245025;23;20413;-68
2022/10/12 12:04:24;;;;;;;0.90;0.50;;;15.50;99.90;;;;;;6244440;22;20439;-69
2022/10/12 12:06:56;;;;;;;0.90;0.90;;;15.50;99.90;;;;;;6244301;23;20778;-69
2022/10/12 12:09:34;;;;;;;1.50;1.27;;;15.50;99.90;;;;;;6244391;23;20753;-69
2022/10/12 12:12:17;;;;;;;1.60;1.60;;;15.60;99.90;;;;;;6244679;23;20407;-68
2022/10/12 12:15:00;;;;;;;1.10;0.50;;;15.60;99.90;;;;;;6244241;22;20455;-69
2022/10/12 12:17:29;;;;;;;1.20;1.20;;;15.60;99.90;;;;;;6244786;23;20418;-70
2022/10/12 12:19:57;;;;;;;1.40;1.13;;;15.60;99.90;;;;;;6244919;23;20797;-69
2022/10/12 12:22:46;;;;;;;0.50;0.50;;;15.70;99.90;;;;;;6244143;23;20420;-70
2022/10/12 12:25:20;;;;;;;1.53;1.53;;;15.80;99.90;;;;;;6244489;22;20440;-70
2022/10/12 12:27:50;;;;;;;0.63;0.63;;;15.90;99.90;;;;;;6244547;23;20408;-69
2022/10/12 12:30:33;;;;;;;1.00;1.00;;;15.80;99.90;;;;;;6244805;23;20755;-70
2022/10/12 12:33:01;;;;;;;1.13;0.50;;;15.90;99.90;;;;;;6244607;23;20498;-70
2022/10/12 12:35:33;;;;;;;0.40;0.40;;;16.00;99.90;;;;;;6243995;22;20505;-70
2022/10/12 12:38:03;;;;;;;4.30;0.63;;;16.10;99.90;;;;;;6243928;23;20410;-70
2022/10/12 12:40:30;;;;;;;2.63;1.07;;;16.20;99.90;;;;;;6244549;23;20424;-70
2022/10/12 12:43:36;;;;;;;1.13;0.70;;;16.20;99.90;;;;;;6243599;23;20917;-69
2022/10/12 12:46:04;;;;;;;1.23;0.70;;;16.00;99.90;;;;;;6244429;22;20439;-69
2022/10/12 12:48:59;;;;;;;0.80;0.80;;;16.00;99.90;;;;;;6244490;23;20474;-69
2022/10/12 12:51:37;;;;;;;3.83;0.60;;;16.00;99.90;;;;;;6232593;23;20431;-70
2022/10/12 12:54:10;;;;;;;3.17;0.50;;;16.00;99.90;;;;;;6242638;22;20981;-70
2022/10/12 12:56:45;;;;;;;0.53;0.53;;;15.90;99.90;;;;;;6244435;23;20499;-70
2022/10/12 12:59:31;;;;;;;2.17;0.70;;;16.00;99.90;;;;;;6243974;23;20406;-70
2022/10/12 13:02:20;;;;;;;1.30;0.97;;;16.00;99.90;;;;;;6244149;23;20779;-70
2022/10/12 13:05:06;;;;;;;0.60;0.53;;;16.00;99.90;;;;;;6244205;22;20436;-69
2022/10/12 13:08:06;;;;;;;1.00;0.80;;;15.90;99.90;;;;;;6243514;23;20447;-68
2022/10/12 13:10:50;;;;;;;0.67;0.63;;;15.90;99.90;;;;;;6244216;23;20757;-66
2022/10/12 13:13:42;;;;;;;3.90;1.03;;;15.80;99.90;;;;;;6243236;23;20898;-66
2022/10/12 13:16:23;;;;;;;0.67;0.60;;;15.80;99.90;;;;;;6213542;23;20409;-65
2022/10/12 13:18:57;;;;;;;0.57;0.57;;;15.60;99.90;;;;;;6213505;23;20757;-67
2022/10/12 13:21:26;;;;;;;1.87;0.70;;;15.60;99.90;;;;;;6213780;23;20407;-70
2022/10/12 13:24:01;;;;;;;1.17;0.70;;;15.60;99.90;;;;;;6212818;23;20416;-70
2022/10/12 13:26:30;;;;;;;0.60;0.60;;;15.60;99.90;;;;;;6213513;23;20486;-69
2022/10/12 13:28:59;;;;;;;6.70;1.50;;;15.70;99.90;;;;;;6213431;23;20453;-70
2022/10/12 13:31:34;;;;;;;0.67;0.67;;;15.80;99.90;;;;;;6214040;23;20439;-69
2022/10/12 13:34:09;;;;;;;0.30;0.30;;;15.80;99.90;;;;;;6213481;23;20794;-69
2022/10/12 13:36:49;;;;;;;2.77;0.70;;;15.80;99.90;;;;;;6213389;23;20820;-69
2022/10/12 13:39:17;;;;;;;0.67;0.67;;;15.80;99.90;;;;;;6213029;23;20468;-71
2022/10/12 13:41:45;;;;;;;0.73;0.73;;;15.90;99.90;;;;;;6213635;23;20480;-70
2022/10/12 13:44:21;;;;;;;0.40;0.40;;;15.80;99.90;;;;;;6212993;23;20445;-70
2022/10/12 13:46:50;;;;;;;5.20;0.80;;;15.90;99.90;;;;;;6213527;23;20897;-70
2022/10/12 13:49:19;;;;;;;0.40;0.40;;;15.90;99.90;;;;;;6213877;23;20758;-69
2022/10/12 13:51:47;;;;;;;0.40;0.40;;;15.80;99.90;;;;;;6213122;23;20735;-70
2022/10/12 13:54:19;;;;;;;2.53;0.73;;;15.80;99.90;;;;;;6212591;23;20459;-69
2022/10/12 13:56:50;;;;;;;0.33;0.33;;;15.80;99.90;;;;;;6213643;23;20410;-69
2022/10/12 13:59:21;;;;;;;4.23;0.57;;;15.80;99.90;;;;;;6212990;23;20882;-70
2022/10/12 14:01:51;;;;;;;0.50;0.50;;;15.90;99.90;;;;;;6213262;23;20407;-70
2022/10/12 14:04:17;;;;;;;1.90;0.60;;;15.90;99.90;;;;;;6212803;23;20462;-69
2022/10/12 14:06:49;;;;;;;0.97;0.73;;;15.90;99.90;;;;;;6212447;23;20425;-70
2022/10/12 14:09:19;;;;;;;2.83;0.70;;;15.80;99.90;;;;;;6212705;23;20743;-70
2022/10/12 14:11:46;;;;;;;3.13;0.57;;;15.90;99.90;;;;;;6212929;23;20411;-69
2022/10/12 14:14:19;;;;;;;0.93;0.93;;;15.80;99.90;;;;;;6218496;23;20450;-69
2022/10/12 14:16:46;;;;;;;0.47;0.47;;;15.80;99.90;;;;;;6243471;23;20407;-69
2022/10/12 14:19:31;;;;;;;3.50;0.97;;;15.80;99.90;;;;;;6242908;23;20430;-69
2022/10/12 14:21:59;;;;;;;0.30;0.30;;;15.80;99.90;;;;;;6242452;23;20407;-68
2022/10/12 14:24:26;;;;;;;0.50;0.50;;;15.80;99.90;;;;;;6242591;22;20443;-68
2022/10/12 14:26:55;;;;;;;1.80;0.60;;;15.80;99.90;;;;;;6242711;23;20432;-68
2022/10/12 14:29:28;;;;;;;2.97;0.60;;;15.80;99.90;;;;;;6242793;23;20421;-69
2022/10/12 14:31:56;;;;;;;0.40;0.40;;;15.80;99.90;;;;;;6242970;23;20424;-69
2022/10/12 14:34:37;;;;;;;0.60;0.60;;;15.80;99.90;;;;;;6242340;22;20985;-68
2022/10/12 14:37:18;;;;;;;4.90;0.80;;;15.80;99.90;;;;;;6243146;23;20754;-69
2022/10/12 14:39:46;;;;;;;1.20;0.90;;;15.80;99.90;;;;;;6243263;23;20731;-69
2022/10/12 14:42:21;;;;;;;8.60;0.87;;;15.70;99.90;;;;;;6243037;23;20438;-69
2022/10/12 14:44:48;;;;;;;2.33;0.80;;;15.70;99.90;;;;;;6242757;22;20780;-70
2022/10/12 14:47:19;;;;;;;1.80;0.57;;;15.70;99.90;;;;;;6243375;23;20446;-69
2022/10/12 14:49:49;;;;;;;1.90;0.70;;;15.70;99.90;;;;;;6243327;23;20466;-70
2022/10/12 14:52:19;;;;;;;1.70;0.97;;;15.60;99.90;;;;;;6242806;23;20415;-68
2022/10/12 14:54:50;;;;;;;2.67;0.80;;;15.50;99.90;;;;;;6242947;22;20553;-69
2022/10/12 14:57:17;;;;;;;0.63;0.40;;;15.50;99.90;;;;;;6242825;23;20456;-70
2022/10/12 14:59:44;;;;;;;0.50;0.30;;;15.50;99.90;;;;;;6252849;23;20760;-68
2022/10/12 15:02:15;;;;;;;0.70;0.53;;;15.50;99.90;;;;;;6243060;23;20448;-70
2022/10/12 15:04:42;;;;;;;0.43;0.43;;;15.40;99.90;;;;;;6242864;22;20801;-69
2022/10/12 15:07:15;;;;;;;2.10;2.00;;;15.40;99.90;;;;;;6242689;23;20805;-68
2022/10/12 15:09:43;;;;;;;0.83;0.60;;;15.40;99.90;;;;;;6242664;23;20408;-69
2022/10/12 15:12:12;;;;;;;0.83;0.67;;;15.40;99.90;;;;;;6242675;23;20431;-70
2022/10/12 15:14:39;;;;;;;6.97;0.70;;;15.40;99.90;;;;;;6242504;22;20474;-69
2022/10/12 15:17:06;;;;;;;0.30;0.30;;;15.30;99.90;;;;;;6242478;23;20790;-69
2022/10/12 15:19:33;;;;;;;3.60;0.70;;;15.30;99.90;;;;;;6240837;23;20433;-68
2022/10/12 15:22:00;;;;;;;1.13;0.70;;;15.30;99.90;;;;;;6239088;23;20429;-68
2022/10/12 15:24:28;;;;;;;0.77;0.77;;;15.20;99.90;;;;;;6241702;22;20992;-67
2022/10/12 15:26:54;;;;;;;0.60;0.60;;;15.20;99.90;;;;;;6243101;23;20423;-67
2022/10/12 15:29:21;;;;;;;0.80;0.80;;;15.10;99.90;;;;;;6242639;23;20426;-68
2022/10/12 15:31:48;;;;;;;1.50;0.63;;;15.00;99.90;;;;;;6242040;23;20437;-68
2022/10/12 15:34:15;;;;;;;0.90;0.90;;;15.00;99.90;;;;;;6242576;22;20453;-66
2022/10/12 15:36:42;;;;;;;0.27;0.27;;;15.00;99.90;;;;;;6241428;23;20431;-67
2022/10/12 15:39:09;;;;;;;1.23;0.50;;;14.90;99.90;;;;;;6241499;23;20427;-68
2022/10/12 15:41:37;;;;;;;1.40;0.47;;;14.90;99.90;;;;;;6242517;23;20422;-69
2022/10/12 15:44:04;;;;;;;2.10;0.70;;;14.80;99.90;;;;;;6241925;22;20450;-68
2022/10/12 15:46:31;;;;;;;0.40;0.40;;;14.70;99.90;;;;;;6242891;23;20427;-68
2022/10/12 15:48:57;;;;;;;4.83;0.87;;;14.70;99.90;;;;;;6242641;23;20427;-68
2022/10/12 15:51:25;;;;;;;1.67;0.43;;;14.50;99.90;;;;;;6242290;23;20427;-68
2022/10/12 15:53:53;;;;;;;0.23;0.23;;;14.50;99.90;;;;;;6241674;22;20429;-68
2022/10/12 15:56:20;;;;;;;1.00;0.33;;;14.40;99.90;;;;;;6242819;23;20786;-67
2022/10/12 15:58:48;;;;;;;14.93;0.97;;;14.40;99.90;;;;;;6241969;23;20419;-68
2022/10/12 16:01:17;;;;;;;2.10;1.20;;;14.30;99.90;;;;;;6242766;23;20422;-65
2022/10/12 16:03:44;;;;;;;0.70;0.47;;;14.30;99.90;;;;;;6241235;22;20727;-69
2022/10/12 16:06:11;;;;;;;0.63;0.63;;;14.20;99.90;;;;;;6239046;23;20419;-69
2022/10/12 16:08:38;;;;;;;0.50;0.50;;;14.10;99.90;;;;;;6241624;23;20422;-69
2022/10/12 16:11:07;;;;;;;0.87;0.43;;;14.10;99.90;;;;;;6242794;23;20422;-70
2022/10/12 16:13:35;;;;;;;1.23;0.83;;;14.00;99.90;;;;;;6242510;23;20928;-69
2022/10/12 16:16:03;;;;;;;1.03;0.80;;;13.90;99.90;;;;;;6243108;22;20458;-72
2022/10/12 16:18:30;;;;;;;3.43;0.90;;;13.90;99.90;;;;;;6245613;23;20422;-71
2022/10/12 16:20:56;;;;;;;0.60;0.60;;;13.80;99.90;;;;;;6246792;23;20423;-71
2022/10/12 16:23:27;;;;;;;0.30;0.30;;;13.80;99.90;;;;;;6246703;23;20429;-71
2022/10/12 16:25:54;;;;;;;5.90;1.30;;;13.70;99.90;;;;;;6246372;22;20442;-69
2022/10/12 16:28:22;;;;;;;4.33;2.03;;;13.70;99.90;;;;;;6242913;23;20422;-69
2022/10/12 16:30:49;;;;;;;0.60;0.60;;;13.70;99.90;;;;;;6242745;23;20519;-69
2022/10/12 16:33:18;;;;;;;6.33;1.03;;;13.60;99.90;;;;;;6242567;23;20425;-69
2022/10/12 16:35:45;;;;;;;3.57;0.80;;;13.50;99.90;;;;;;6241614;22;20517;-69
2022/10/12 16:38:13;;;;;;;8.37;1.00;;;13.40;99.90;;;;;;6241862;23;20500;-69
2022/10/12 16:40:41;;;;;;;0.65;0.65;;;13.30;99.90;;;;;;6253260;23;20496;-69
2022/10/12 16:43:08;;;;;;;0.57;0.57;;;13.20;99.90;;;;;;6244632;23;20183;-69
2022/10/12 16:45:35;;;;;;;3.70;1.03;;;13.10;99.90;;;;;;6247778;22;20249;-69
2022/10/12 16:48:01;;;;;;;2.00;0.60;;;13.00;99.90;;;;;;6245878;23;20428;-71
2022/10/12 16:50:30;;;;;;;2.57;1.23;;;12.90;99.90;;;;;;6246477;23;20421;-67
2022/10/12 16:52:57;;;;;;;0.83;0.83;;;12.80;99.90;;;;;;6244128;23;20421;-69
2022/10/12 16:55:24;;;;;;;1.35;1.35;;;12.70;99.90;;;;;;6244874;22;20472;-69
2022/10/12 16:57:50;;;;;;;3.70;0.88;;;12.60;99.90;;;;;;6245371;23;20242;-67
2022/10/12 17:00:20;;;;;;;1.23;1.13;;;12.50;99.90;;;;;;6245096;23;20186;-68
2022/10/12 17:02:47;;;;;;;1.52;1.50;;;12.40;99.90;;;;;;6244490;23;20213;-68